»·PEaware :: SWA4492 KABQ-KSAN

SWA4492 :: KABQ-KSAN

FLIGHT INFORMATION

Flight Status: Arrived
Operator:
Southwest Airlines
More flights by this operator :: More flights under this callsign
Pilot: Anonymous 12234 (12234)
Aircraft: BOEING 737-200
(B732)
More flights by this aircraft type
Origin: KABQ Albuquerque Intl Sunport
United States
Destination: KSAN San Diego Intl-Lindbergh
United States
More flights between these airports :: More routes between these airports
Route: LARGO3 ZUN J78 DRK J134 PKE BARET5
File this flight plan on PilotEdge
Remarks:
Altitude:
(Current/Filed)
32,000ft
Speed:
(Current/Filed)
455kts
Departed: 08-Aug-18 02:02 PM
Arrived: 08-Aug-18 03:40 PM
Distance/Time
Traveled:
545nm/1:38
Distance/Time
To Go:
Arrived

Flight Plot

Page will automatically refresh every two minutes.

Flight plan parsing failed; only flown route is shown


Map Options




Map Legend


Flown Route
Filed Route
Departure Airport
Arrival Airport
Navaid (VOR, NDB)
Fix

Horizontal Profiles

Position Reports

Time Latitude Longitude Heading Altitude Ground
Speed
08-Aug-18 13:43 35.047839 -106.615224 180 5324ft 0kts
08-Aug-18 13:44 35.047839 -106.615224 180 5324ft 0kts
08-Aug-18 13:45 35.047839 -106.615224 180 5324ft 0kts
08-Aug-18 13:46 35.047839 -106.615224 180 5324ft 0kts
08-Aug-18 13:47 35.047839 -106.615224 180 5324ft 0kts
08-Aug-18 13:48 35.047839 -106.615224 180 5324ft 0kts
08-Aug-18 13:49 35.047839 -106.615224 180 5324ft 0kts
08-Aug-18 13:50 35.047839 -106.615224 180 5324ft 0kts
08-Aug-18 13:51 35.047839 -106.615224 180 5324ft 0kts
08-Aug-18 13:52 35.047839 -106.615224 180 5324ft 0kts
08-Aug-18 13:53 35.047836 -106.615224 180 5324ft 0kts
08-Aug-18 13:54 35.048229 -106.615260 148 5324ft 2kts
08-Aug-18 13:55 35.048365 -106.615572 89 5324ft 0kts
08-Aug-18 13:56 35.048365 -106.615572 89 5324ft 0kts
08-Aug-18 13:57 35.048365 -106.615572 89 5324ft 0kts
08-Aug-18 13:58 35.048328 -106.613290 110 5324ft 5kts
08-Aug-18 13:59 35.048070 -106.613104 169 5324ft 8kts
08-Aug-18 14:00 35.045563 -106.617012 270 5324ft 17kts
08-Aug-18 14:01 35.045397 -106.621263 206 5324ft 3kts
08-Aug-18 14:02 35.044367 -106.621092 107 5324ft 8kts
08-Aug-18 14:03 35.044332 -106.615870 89 5324ft 78kts
08-Aug-18 14:04 35.046686 -106.566637 50 6275ft 177kts
08-Aug-18 14:05 35.088185 -106.590958 300 7542ft 226kts
08-Aug-18 14:06 35.122268 -106.660468 299 9004ft 249kts
08-Aug-18 14:07 35.141936 -106.743977 258 10460ft 294kts
08-Aug-18 14:08 35.132415 -106.848878 268 12031ft 330kts
08-Aug-18 14:09 35.129114 -106.962994 269 14119ft 339kts
08-Aug-18 14:10 35.127013 -107.079026 270 15998ft 346kts
08-Aug-18 14:11 35.122837 -107.193416 268 17829ft 349kts
08-Aug-18 14:12 35.117491 -107.309466 268 19323ft 356kts
08-Aug-18 14:13 35.112032 -107.430550 268 20710ft 362kts
08-Aug-18 14:14 35.103664 -107.553659 263 21959ft 369kts
08-Aug-18 14:15 35.085629 -107.676923 261 23079ft 375kts
08-Aug-18 14:16 35.067147 -107.802608 261 24111ft 380kts
08-Aug-18 14:17 35.051316 -107.930176 265 25161ft 384kts
08-Aug-18 14:18 35.042639 -108.059985 268 26120ft 389kts
08-Aug-18 14:19 35.037423 -108.191832 268 27000ft 393kts
08-Aug-18 14:20 35.032321 -108.325010 269 27788ft 397kts
08-Aug-18 14:21 35.026651 -108.458759 268 28691ft 396kts
08-Aug-18 14:22 35.016271 -108.591877 265 29520ft 395kts
08-Aug-18 14:23 34.999494 -108.719991 262 30245ft 395kts
08-Aug-18 14:24 34.984433 -108.850311 265 31272ft 385kts
08-Aug-18 14:25 34.974847 -108.979138 267 31991ft 382kts
08-Aug-18 14:26 34.966555 -109.108983 267 32221ft 392kts
08-Aug-18 14:27 34.958691 -109.242662 267 32205ft 404kts
08-Aug-18 14:28 34.951020 -109.380603 267 32204ft 412kts
08-Aug-18 14:29 34.935826 -109.518788 262 32199ft 413kts
08-Aug-18 14:30 34.919185 -109.654908 264 32196ft 406kts
08-Aug-18 14:31 34.908732 -109.787955 265 32220ft 403kts
08-Aug-18 14:32 34.898663 -109.921960 265 32245ft 401kts
08-Aug-18 14:33 34.889240 -110.052549 265 32206ft 403kts
08-Aug-18 14:34 34.879801 -110.188608 265 32143ft 405kts
08-Aug-18 14:35 34.870704 -110.324732 266 32148ft 405kts
08-Aug-18 14:36 34.861675 -110.461012 265 32141ft 405kts
08-Aug-18 14:37 34.852729 -110.597397 266 32143ft 405kts
08-Aug-18 14:38 34.844050 -110.730398 265 32147ft 405kts
08-Aug-18 14:39 34.834570 -110.866182 264 32151ft 406kts
08-Aug-18 14:40 34.823758 -111.002589 265 32144ft 406kts
08-Aug-18 14:41 34.813244 -111.138644 265 32147ft 407kts
08-Aug-18 14:42 34.802947 -111.274161 265 32214ft 405kts
08-Aug-18 14:43 34.792880 -111.409121 265 32272ft 404kts
08-Aug-18 14:44 34.782862 -111.544862 265 32314ft 403kts
08-Aug-18 14:45 34.771858 -111.678184 263 32348ft 403kts
08-Aug-18 14:46 34.757871 -111.812676 263 32348ft 405kts
08-Aug-18 14:47 34.743951 -111.947570 263 32299ft 407kts
08-Aug-18 14:48 34.731460 -112.083985 264 32220ft 409kts
08-Aug-18 14:49 34.720046 -112.219348 265 32212ft 408kts
08-Aug-18 14:50 34.710497 -112.355249 265 32210ft 405kts
08-Aug-18 14:51 34.686372 -112.486473 253 32204ft 402kts
08-Aug-18 14:52 34.655349 -112.614807 256 32206ft 398kts
08-Aug-18 14:53 34.628199 -112.742756 256 32211ft 397kts
08-Aug-18 14:54 34.600323 -112.870881 254 32212ft 396kts
08-Aug-18 14:55 34.568091 -112.998851 252 32211ft 400kts
08-Aug-18 14:56 34.532581 -113.126656 251 32210ft 403kts
08-Aug-18 14:57 34.493712 -113.253773 249 32209ft 406kts
08-Aug-18 14:58 34.452797 -113.381085 249 32133ft 410kts
08-Aug-18 14:59 34.414160 -113.510444 251 31966ft 414kts
08-Aug-18 15:00 34.376336 -113.642108 252 31902ft 414kts
08-Aug-18 15:01 34.339046 -113.771730 251 31908ft 406kts
08-Aug-18 15:02 34.302500 -113.898887 251 31908ft 402kts
08-Aug-18 15:03 34.268896 -114.025828 253 31907ft 399kts
08-Aug-18 15:04 34.238145 -114.153454 254 31908ft 399kts
08-Aug-18 15:05 34.209011 -114.282154 256 31881ft 402kts
08-Aug-18 15:06 34.180519 -114.413193 256 31879ft 407kts
08-Aug-18 15:07 34.144481 -114.540451 251 31880ft 410kts
08-Aug-18 15:08 34.105970 -114.668355 250 31887ft 412kts
08-Aug-18 15:09 34.068607 -114.768427 239 31904ft 415kts
08-Aug-18 15:10 34.007187 -114.884679 239 31890ft 415kts
08-Aug-18 15:11 33.950079 -115.003875 242 31886ft 413kts
08-Aug-18 15:12 33.896444 -115.121840 243 31886ft 411kts
08-Aug-18 15:13 33.843929 -115.240892 243 31886ft 415kts
08-Aug-18 15:14 33.790228 -115.363348 243 31862ft 419kts
08-Aug-18 15:15 33.736315 -115.486331 243 31844ft 422kts
08-Aug-18 15:16 33.682211 -115.609803 243 31843ft 424kts
08-Aug-18 15:17 33.633131 -115.717746 236 31845ft 427kts
08-Aug-18 15:18 33.569225 -115.820393 234 29717ft 425kts
08-Aug-18 15:19 33.500328 -115.930727 235 27484ft 412kts
08-Aug-18 15:20 33.438603 -116.040205 238 25287ft 401kts
08-Aug-18 15:21 33.379226 -116.149964 238 23846ft 383kts
08-Aug-18 15:22 33.308468 -116.239296 221 23603ft 378kts
08-Aug-18 15:23 33.240879 -116.308130 221 21349ft 385kts
08-Aug-18 15:24 33.149735 -116.401871 221 19088ft 371kts
08-Aug-18 15:25 33.073560 -116.480970 221 17189ft 359kts
08-Aug-18 15:26 33.012155 -116.547194 221 15327ft 359kts
08-Aug-18 15:27 32.924850 -116.634253 199 12958ft 348kts
08-Aug-18 15:28 32.833630 -116.653924 190 11365ft 329kts
08-Aug-18 15:29 32.764958 -116.670473 190 10685ft 302kts
08-Aug-18 15:30 32.682944 -116.689249 190 9147ft 298kts
08-Aug-18 15:31 32.602780 -116.707274 190 7740ft 291kts
08-Aug-18 15:32 32.527979 -116.734058 228 6310ft 285kts
08-Aug-18 15:33 32.550719 -116.819377 330 5052ft 276kts
08-Aug-18 15:34 32.607121 -116.856675 331 5010ft 268kts
08-Aug-18 15:35 32.655547 -116.913212 311 4657ft 236kts
08-Aug-18 15:36 32.683256 -116.979049 284 3794ft 222kts
08-Aug-18 15:37 32.698079 -117.043224 286 2811ft 183kts
08-Aug-18 15:38 32.711079 -117.096269 284 1676ft 141kts
08-Aug-18 15:39 32.721402 -117.139406 284 944ft 136kts
08-Aug-18 15:40 32.731839 -117.182535 283 39ft 135kts
08-Aug-18 15:41 32.735966 -117.201914 236 23ft 4kts
08-Aug-18 15:42 32.735540 -117.202132 150 23ft 2kts
08-Aug-18 15:43 32.734128 -117.197044 157 24ft 5kts
08-Aug-18 15:44 32.733104 -117.196726 140 24ft 0kts
08-Aug-18 15:45 32.733104 -117.196726 140 24ft 0kts
08-Aug-18 15:46 32.733104 -117.196726 140 24ft 0kts
08-Aug-18 15:47 32.733104 -117.196726 140 24ft 0kts
08-Aug-18 15:48 32.733104 -117.196726 140 24ft 0kts
08-Aug-18 15:49 32.733104 -117.196726 140 24ft 0kts
08-Aug-18 15:50 32.733104 -117.196726 140 24ft 0kts
08-Aug-18 15:51 32.733104 -117.196726 140 24ft 0kts
08-Aug-18 15:52 32.733104 -117.196726 140 24ft 0kts
08-Aug-18 15:53 32.733104 -117.196726 140 24ft 0kts
08-Aug-18 15:54 32.733104 -117.196726 140 24ft 0kts
08-Aug-18 15:55 32.733104 -117.196726 140 24ft 0kts
08-Aug-18 15:56 32.733104 -117.196726 140 24ft 0kts

Navigation Log

Ident Type
Flight plan parsing failed, navigation log unavailable